Ohyamamaru — JG5507 — position and weather

sailwx.info

Track history (hours):
 
Tides and Currents Weather Stations Pressure Air Temp Water Temp Dewpoint Dewpoint Depression Visibility Wind Speed Wind Dir Waves Ship Positions

Ohyamamaru

Last reported at 2014-Nov-28 09:30 UTC. Time now 2014-Nov-29 02:25 UTC.
Position N 35°38' E 139°46'.

Length 36 m; draft 4.4 m.

Type: Tug. MMSI: 431001114.

Date/timePositionNaut miles runAvg speedWind from/ knotsBaromVisibWave heightAir tempDewpointWater temp
2014-Nov-28 09:30N 35°38' E 139°46'0 0.0
2014-Nov-28 08:24N 35°38' E 139°46'2 0.5
2014-Nov-28 03:19N 35°35' E 139°47'0 0.6
2014-Nov-28 02:28N 35°35' E 139°47'2 0.1
2014-Nov-27 10:33N 35°37' E 139°46'3 3.1
2014-Nov-27 09:25N 35°34' E 139°49'0 0.5
2014-Nov-27 08:30N 35°34' E 139°48'1 0.0
2014-Nov-25 15:33N 35°35' E 139°47'2 2.2
2014-Nov-25 14:32N 35°37' E 139°46'2 1.1
2014-Nov-25 12:18N 35°35' E 139°48'2 1.3
2014-Nov-25 10:32N 35°37' E 139°46'4 3.6
2014-Nov-25 09:33N 35°34' E 139°48'3 0.4
2014-Nov-25 01:27N 35°37' E 139°47'1 0.7
2014-Nov-25 00:03N 35°37' E 139°46'1 0.3
2014-Nov-24 21:30N 35°38' E 139°46'0 0.0
2014-Nov-22 22:23N 35°38' E 139°46'0 0.0
2014-Nov-22 21:24N 35°38' E 139°46'0 0.0
2014-Nov-22 20:26N 35°38' E 139°46'1 0.1
2014-Nov-22 08:23N 35°37' E 139°46'1 0.5
2014-Nov-22 05:21N 35°37' E 139°48'1 0.9
2014-Nov-22 04:29N 35°36' E 139°47'3 2.8
2014-Nov-22 03:32N 35°34' E 139°49'5 4.8
2014-Nov-22 02:31N 35°38' E 139°46'0 0.1
2014-Nov-21 23:22N 35°38' E 139°46'0 0.0
2014-Nov-21 22:27N 35°38' E 139°46'0 0.0
2014-Nov-21 21:29N 35°38' E 139°46'4 0.4
2014-Nov-21 13:03N 35°35' E 139°48'1 0.5
2014-Nov-21 10:28N 35°36' E 139°47'1 0.5
2014-Nov-21 09:10N 35°37' E 139°47'1 0.1
2014-Nov-20 23:18N 35°36' E 139°47'0 0.4
2014-Nov-20 22:31N 35°35' E 139°47'0 0.0
2014-Nov-20 21:32N 35°35' E 139°47'3 2.6
2014-Nov-20 20:33N 35°38' E 139°46'0 0.0
2014-Nov-20 00:04N 35°38' E 139°46'0 0.0
2014-Nov-18 22:29N 35°38' E 139°46'4 4.6
2014-Nov-18 21:33N 35°34' E 139°48'3 2.9
2014-Nov-18 20:31N 35°37' E 139°46'  
Track history (hours):
 
Tides and Currents Weather Stations Pressure Air Temp Water Temp Dewpoint Dewpoint Depression Visibility Wind Speed Wind Dir Waves Ship Positions

Ohyamamaru

Last reported at 2014-Nov-28 09:30 UTC. Time now 2014-Nov-29 02:25 UTC.
Position N 35°38' E 139°46'.

Length 36 m; draft 4.4 m.

Type: Tug. MMSI: 431001114.

Date/timePositionNaut miles runAvg speedWind from/ knotsBaromVisibWave heightAir tempDewpointWater temp
2014-Nov-28 09:30N 35°38' E 139°46'0 0.0
2014-Nov-28 08:24N 35°38' E 139°46'2 0.5
2014-Nov-28 03:19N 35°35' E 139°47'0 0.6
2014-Nov-28 02:28N 35°35' E 139°47'2 0.1
2014-Nov-27 10:33N 35°37' E 139°46'3 3.1
2014-Nov-27 09:25N 35°34' E 139°49'0 0.5
2014-Nov-27 08:30N 35°34' E 139°48'1 0.0
2014-Nov-25 15:33N 35°35' E 139°47'2 2.2
2014-Nov-25 14:32N 35°37' E 139°46'2 1.1
2014-Nov-25 12:18N 35°35' E 139°48'2 1.3
2014-Nov-25 10:32N 35°37' E 139°46'4 3.6
2014-Nov-25 09:33N 35°34' E 139°48'3 0.4
2014-Nov-25 01:27N 35°37' E 139°47'1 0.7
2014-Nov-25 00:03N 35°37' E 139°46'1 0.3
2014-Nov-24 21:30N 35°38' E 139°46'0 0.0
2014-Nov-22 22:23N 35°38' E 139°46'0 0.0
2014-Nov-22 21:24N 35°38' E 139°46'0 0.0
2014-Nov-22 20:26N 35°38' E 139°46'1 0.1
2014-Nov-22 08:23N 35°37' E 139°46'1 0.5
2014-Nov-22 05:21N 35°37' E 139°48'1 0.9
2014-Nov-22 04:29N 35°36' E 139°47'3 2.8
2014-Nov-22 03:32N 35°34' E 139°49'5 4.8
2014-Nov-22 02:31N 35°38' E 139°46'0 0.1
2014-Nov-21 23:22N 35°38' E 139°46'0 0.0
2014-Nov-21 22:27N 35°38' E 139°46'0 0.0
2014-Nov-21 21:29N 35°38' E 139°46'4 0.4
2014-Nov-21 13:03N 35°35' E 139°48'1 0.5
2014-Nov-21 10:28N 35°36' E 139°47'1 0.5
2014-Nov-21 09:10N 35°37' E 139°47'1 0.1
2014-Nov-20 23:18N 35°36' E 139°47'0 0.4
2014-Nov-20 22:31N 35°35' E 139°47'0 0.0
2014-Nov-20 21:32N 35°35' E 139°47'3 2.6
2014-Nov-20 20:33N 35°38' E 139°46'0 0.0
2014-Nov-20 00:04N 35°38' E 139°46'0 0.0
2014-Nov-18 22:29N 35°38' E 139°46'4 4.6
2014-Nov-18 21:33N 35°34' E 139°48'3 2.9
2014-Nov-18 20:31N 35°37' E 139°46'  

Dump ship's entire track history